createdAt,value
2022-08-27T00:00:17.908Z,3.45
2022-08-27T00:03:22.722Z,3.70
2022-08-27T00:06:30.221Z,3.30
2022-08-27T00:09:36.770Z,3.67
2022-08-27T00:12:43.361Z,3.75
2022-08-27T00:15:43.147Z,3.80
2022-08-27T00:18:49.966Z,4.08
2022-08-27T00:21:57.133Z,4.95
2022-08-27T00:25:04.199Z,4.45
2022-08-27T00:28:04.236Z,3.55
2022-08-27T00:30:56.187Z,3.72
2022-08-27T00:34:00.891Z,4.25
2022-08-27T00:37:05.786Z,4.12
2022-08-27T00:40:10.950Z,3.83
2022-08-27T00:43:17.167Z,4.30
2022-08-27T00:46:39.024Z,3.90
2022-08-27T00:50:13.782Z,4.05
2022-08-27T00:53:29.724Z,3.80
2022-08-27T00:56:39.296Z,3.55
2022-08-27T00:59:45.553Z,3.40
2022-08-27T01:02:53.098Z,4.00
2022-08-27T01:05:52.728Z,4.35
2022-08-27T01:09:06.771Z,4.03
2022-08-27T01:12:12.476Z,4.25
2022-08-27T01:15:23.076Z,4.20
2022-08-27T01:18:29.308Z,4.63
2022-08-27T01:21:42.788Z,4.50
2022-08-27T01:24:59.753Z,4.92
2022-08-27T01:28:07.704Z,4.25
2022-08-27T01:31:12.893Z,4.58
2022-08-27T01:34:19.677Z,4.55
2022-08-27T01:37:25.482Z,4.40
2022-08-27T01:40:33.070Z,4.78
2022-08-27T01:43:39.939Z,5.35
2022-08-27T01:46:46.466Z,4.97
2022-08-27T01:49:52.126Z,5.37
2022-08-27T01:52:57.953Z,4.55
2022-08-27T01:56:03.438Z,4.42
2022-08-27T01:59:10.357Z,4.97
2022-08-27T02:02:15.666Z,4.75
2022-08-27T02:05:22.238Z,4.47
2022-08-27T02:08:29.367Z,5.03
2022-08-27T02:11:28.058Z,5.12
2022-08-27T02:14:33.597Z,6.25
2022-08-27T02:17:39.167Z,5.20
2022-08-27T02:20:45.174Z,5.37
2022-08-27T02:23:51.956Z,4.75
2022-08-27T02:26:59.683Z,5.08
2022-08-27T02:30:05.281Z,4.40
2022-08-27T02:33:04.883Z,5.10
2022-08-27T02:39:14.159Z,5.80
2022-08-27T02:42:20.401Z,5.35
2022-08-27T02:45:27.272Z,5.78
2022-08-27T02:48:32.839Z,6.03
2022-08-27T02:51:38.479Z,5.50
2022-08-27T02:54:44.824Z,5.05
2022-08-27T02:57:51.387Z,5.03
2022-08-27T03:00:58.435Z,4.92
2022-08-27T03:04:04.064Z,4.42
2022-08-27T03:07:18.632Z,5.12
2022-08-27T03:10:18.187Z,5.70
2022-08-27T03:13:23.924Z,4.85
2022-08-27T03:16:30.443Z,5.10
2022-08-27T03:19:35.075Z,6.15
2022-08-27T03:22:42.048Z,4.83
2022-08-27T03:25:48.586Z,5.62
2022-08-27T03:28:55.340Z,5.30
2022-08-27T03:32:01.099Z,4.15
2022-08-27T03:35:07.631Z,4.80
2022-08-27T03:38:13.809Z,5.25
2022-08-27T03:41:20.526Z,5.05
2022-08-27T03:44:26.220Z,4.87
2022-08-27T03:47:32.976Z,5.03
2022-08-27T03:50:39.065Z,4.40
2022-08-27T03:53:44.141Z,4.87
2022-08-27T03:56:49.544Z,5.70
2022-08-27T03:59:56.492Z,4.75
2022-08-27T04:03:06.924Z,5.58
2022-08-27T04:06:12.716Z,6.00
2022-08-27T04:09:18.098Z,5.65
2022-08-27T04:12:22.903Z,5.12
2022-08-27T04:15:29.142Z,4.58
2022-08-27T04:18:37.723Z,4.08
2022-08-27T04:21:44.104Z,4.62
2022-08-27T04:24:51.469Z,5.25
2022-08-27T04:27:57.823Z,5.45
2022-08-27T04:31:03.589Z,4.40
2022-08-27T04:34:09.830Z,4.10
2022-08-27T04:37:15.126Z,4.72
2022-08-27T04:40:23.115Z,3.95
2022-08-27T04:43:28.046Z,4.37
2022-08-27T04:46:43.197Z,4.40
2022-08-27T04:49:49.813Z,4.33
2022-08-27T04:52:55.970Z,4.17
2022-08-27T04:56:03.172Z,3.90
2022-08-27T04:59:10.480Z,4.90
2022-08-27T05:02:17.889Z,3.80
2022-08-27T05:05:24.280Z,4.03
2022-08-27T05:08:30.334Z,4.12
2022-08-27T05:11:39.479Z,4.78
2022-08-27T05:14:45.052Z,4.15
2022-08-27T05:17:51.079Z,3.65
2022-08-27T05:21:00.722Z,5.35
2022-08-27T05:24:06.105Z,3.90
2022-08-27T05:27:13.083Z,4.25
2022-08-27T05:30:19.608Z,3.75
2022-08-27T05:33:28.327Z,4.40
2022-08-27T05:36:37.101Z,4.60
2022-08-27T05:39:36.377Z,4.97
2022-08-27T05:42:42.641Z,4.07
2022-08-27T05:45:57.617Z,4.40
2022-08-27T05:49:04.610Z,3.35
2022-08-27T05:52:09.553Z,3.05
2022-08-27T05:55:15.471Z,3.15
2022-08-27T05:58:23.284Z,2.83
2022-08-27T06:01:29.862Z,3.37
2022-08-27T06:04:35.481Z,3.00
2022-08-27T06:07:42.755Z,3.95
2022-08-27T06:10:49.748Z,3.17
2022-08-27T06:13:56.115Z,3.58
2022-08-27T06:17:02.034Z,3.22
2022-08-27T06:20:07.666Z,2.52
2022-08-27T06:23:13.619Z,3.08
2022-08-27T06:26:21.672Z,3.47
2022-08-27T06:29:28.378Z,3.47
2022-08-27T06:32:33.637Z,2.45
2022-08-27T06:35:39.759Z,3.50
2022-08-27T06:38:44.863Z,3.35
2022-08-27T06:41:50.788Z,3.00
2022-08-27T06:44:57.109Z,3.27
2022-08-27T06:48:03.136Z,2.55
2022-08-27T06:51:09.868Z,3.02
2022-08-27T06:54:18.772Z,2.58
2022-08-27T06:57:24.037Z,3.27
2022-08-27T07:00:29.739Z,2.80
2022-08-27T07:03:35.684Z,2.42
2022-08-27T07:06:41.690Z,3.37
2022-08-27T07:09:48.508Z,2.80
2022-08-27T07:12:55.080Z,2.92
2022-08-27T07:16:01.109Z,3.35
2022-08-27T07:19:10.003Z,3.25
2022-08-27T07:22:17.545Z,2.47
2022-08-27T07:25:26.289Z,3.35
2022-08-27T07:28:31.601Z,3.92
2022-08-27T07:31:37.855Z,3.52
2022-08-27T07:34:43.258Z,2.85
2022-08-27T07:37:50.655Z,3.05
2022-08-27T07:40:59.085Z,3.00
2022-08-27T07:44:23.239Z,2.98
2022-08-27T07:47:29.498Z,2.45
2022-08-27T07:50:36.240Z,3.37
2022-08-27T07:53:44.059Z,2.47
2022-08-27T07:56:55.475Z,2.90
2022-08-27T07:59:35.820Z,2.52
2022-08-27T08:05:24.040Z,2.60
2022-08-27T08:08:30.169Z,2.75
2022-08-27T08:11:35.870Z,3.45
2022-08-27T08:14:41.810Z,2.77
2022-08-27T08:17:49.551Z,2.85
2022-08-27T08:20:58.523Z,3.12
2022-08-27T08:24:03.995Z,2.47
2022-08-27T08:27:07.115Z,2.80
2022-08-27T08:30:10.117Z,2.65
2022-08-27T08:33:17.071Z,2.90
2022-08-27T08:36:27.796Z,3.65
2022-08-27T08:39:35.275Z,3.35
2022-08-27T08:43:00.265Z,3.30
2022-08-27T08:46:05.902Z,2.83
2022-08-27T08:49:15.491Z,2.62
2022-08-27T08:52:31.370Z,2.92
2022-08-27T08:56:01.253Z,2.98
2022-08-27T08:59:26.251Z,2.45
2022-08-27T09:02:31.434Z,2.83
2022-08-27T09:05:38.202Z,2.98
2022-08-27T09:08:56.043Z,3.08
2022-08-27T09:12:21.669Z,2.70
2022-08-27T09:15:36.952Z,3.20
2022-08-27T09:18:42.904Z,2.72
2022-08-27T09:22:13.170Z,3.37
2022-08-27T09:25:36.821Z,3.20
2022-08-27T09:28:54.763Z,2.77
2022-08-27T09:32:14.005Z,4.53
2022-08-27T09:35:24.086Z,4.10
2022-08-27T09:41:46.442Z,3.27
2022-08-27T09:45:00.327Z,3.80
2022-08-27T09:48:11.990Z,4.12
2022-08-27T09:51:30.572Z,4.85
2022-08-27T09:55:01.853Z,4.35
2022-08-27T09:58:09.426Z,4.08
2022-08-27T10:01:20.612Z,4.78
2022-08-27T10:04:29.923Z,4.65
2022-08-27T10:08:00.514Z,3.58
2022-08-27T10:11:16.399Z,4.00
2022-08-27T10:14:40.135Z,4.42
2022-08-27T10:17:58.973Z,3.62
2022-08-27T10:21:30.588Z,2.75
2022-08-27T10:24:53.892Z,3.45
2022-08-27T10:28:20.050Z,3.20
2022-08-27T10:31:34.076Z,4.58
2022-08-27T10:34:58.001Z,3.95
2022-08-27T10:38:30.598Z,3.58
2022-08-27T10:41:45.401Z,4.72
2022-08-27T10:45:07.955Z,4.53
2022-08-27T10:48:45.822Z,3.80
2022-08-27T10:51:57.420Z,4.72
2022-08-27T10:55:17.970Z,3.40
2022-08-27T10:58:50.759Z,4.70
2022-08-27T11:02:04.327Z,4.00
2022-08-27T11:05:14.474Z,4.92
2022-08-27T11:08:43.432Z,4.58
2022-08-27T11:12:13.737Z,4.03
2022-08-27T11:15:20.971Z,4.12
2022-08-27T11:18:46.742Z,4.65
2022-08-27T11:21:58.659Z,3.77
2022-08-27T11:25:38.587Z,4.80
2022-08-27T11:28:56.932Z,5.72
2022-08-27T11:32:16.896Z,4.25
2022-08-27T11:35:58.320Z,4.37
2022-08-27T11:39:11.941Z,4.67
2022-08-27T11:42:43.147Z,5.45
2022-08-27T11:45:52.399Z,4.40
2022-08-27T11:49:01.474Z,4.22
2022-08-27T11:52:19.360Z,4.45
2022-08-27T11:55:38.209Z,4.20
2022-08-27T11:58:53.490Z,5.23
2022-08-27T12:01:52.074Z,5.65
2022-08-27T12:04:57.843Z,4.62
2022-08-27T12:08:07.132Z,4.15
2022-08-27T12:11:48.656Z,5.72
2022-08-27T12:15:06.400Z,5.30
2022-08-27T12:18:31.951Z,4.55
2022-08-27T12:21:42.553Z,5.00
2022-08-27T12:25:10.267Z,5.37
2022-08-27T12:28:18.941Z,4.80
2022-08-27T12:31:24.678Z,5.10
2022-08-27T12:34:42.898Z,5.47
2022-08-27T12:38:13.933Z,5.25
2022-08-27T12:41:21.300Z,6.00
2022-08-27T12:44:43.442Z,5.72
2022-08-27T12:47:53.517Z,5.47
2022-08-27T12:50:58.145Z,6.90
2022-08-27T12:54:58.528Z,6.33
2022-08-27T12:58:47.380Z,6.05
2022-08-27T13:02:13.007Z,7.15
2022-08-27T13:05:19.942Z,6.00
2022-08-27T13:08:39.808Z,5.95
2022-08-27T13:11:48.432Z,7.20
2022-08-27T13:14:57.222Z,6.75
2022-08-27T13:18:02.381Z,7.28
2022-08-27T13:21:18.493Z,6.90
2022-08-27T13:24:25.471Z,7.42
2022-08-27T13:27:30.248Z,7.30
2022-08-27T13:30:37.294Z,8.03
2022-08-27T13:33:52.745Z,7.12
2022-08-27T13:37:17.864Z,8.75
2022-08-27T13:40:23.935Z,8.03
2022-08-27T13:43:30.542Z,8.05
2022-08-27T13:46:45.511Z,8.08
2022-08-27T13:49:52.524Z,8.83
2022-08-27T13:53:15.782Z,7.70
2022-08-27T13:56:21.610Z,7.72
2022-08-27T13:59:35.048Z,8.10
2022-08-27T14:02:55.407Z,8.63
2022-08-27T14:05:58.997Z,8.95
2022-08-27T14:09:05.101Z,8.93
2022-08-27T14:12:19.305Z,8.80
2022-08-27T14:15:45.896Z,8.83
2022-08-27T14:18:59.348Z,8.03
2022-08-27T14:22:00.358Z,8.18
2022-08-27T14:25:06.445Z,8.33
2022-08-27T14:28:12.041Z,7.25
2022-08-27T14:31:19.388Z,9.00
2022-08-27T14:34:25.143Z,7.90
2022-08-27T14:37:30.163Z,7.03
2022-08-27T14:40:29.621Z,8.98
2022-08-27T14:43:35.659Z,8.00
2022-08-27T14:46:46.712Z,8.03
2022-08-27T14:49:56.563Z,8.73
2022-08-27T14:53:02.847Z,8.20
2022-08-27T14:56:12.278Z,6.90
2022-08-27T14:59:18.186Z,8.43
2022-08-27T15:02:26.738Z,8.08
2022-08-27T15:05:33.341Z,8.58
2022-08-27T15:08:40.071Z,8.93
2022-08-27T15:11:49.470Z,8.80
2022-08-27T15:14:56.166Z,7.70
2022-08-27T15:18:01.812Z,7.72
2022-08-27T15:21:08.651Z,7.60
2022-08-27T15:24:20.750Z,8.28
2022-08-27T15:27:32.161Z,8.20
2022-08-27T15:30:39.153Z,7.75
2022-08-27T15:33:44.569Z,7.90
2022-08-27T15:36:50.955Z,7.97
2022-08-27T15:39:56.361Z,8.65
2022-08-27T15:43:07.450Z,6.83
2022-08-27T15:46:12.659Z,6.33
2022-08-27T15:49:19.977Z,5.37
2022-08-27T15:52:33.461Z,5.15
2022-08-27T15:55:37.155Z,4.92
2022-08-27T15:58:44.180Z,5.90
2022-08-27T16:01:50.454Z,5.15
2022-08-27T16:04:56.715Z,5.00
2022-08-27T16:08:01.647Z,4.58
2022-08-27T16:11:07.777Z,5.03
2022-08-27T16:14:14.727Z,4.97
2022-08-27T16:17:21.639Z,4.47
2022-08-27T16:20:31.655Z,3.80
2022-08-27T16:23:37.985Z,4.37
2022-08-27T16:26:42.799Z,4.35
2022-08-27T16:29:47.200Z,4.30
2022-08-27T16:32:52.518Z,3.75
2022-08-27T16:35:58.467Z,4.45
2022-08-27T16:39:04.648Z,4.35
2022-08-27T16:42:10.054Z,4.28
2022-08-27T16:45:15.336Z,5.50
2022-08-27T16:48:37.991Z,4.30
2022-08-27T16:51:45.590Z,4.62
2022-08-27T16:54:50.628Z,4.03
2022-08-27T16:57:56.366Z,4.37
2022-08-27T17:01:05.999Z,4.92
2022-08-27T17:04:21.550Z,3.75
2022-08-27T17:10:28.080Z,4.00
2022-08-27T17:13:39.472Z,4.12
2022-08-27T17:16:49.661Z,5.00
2022-08-27T17:19:56.222Z,3.55
2022-08-27T17:23:03.088Z,3.67
2022-08-27T17:26:09.747Z,4.03
2022-08-27T17:29:16.351Z,3.92
2022-08-27T17:32:22.613Z,4.60
2022-08-27T17:35:28.932Z,4.40
2022-08-27T17:38:36.575Z,4.87
2022-08-27T17:41:51.051Z,4.22
2022-08-27T17:44:57.035Z,3.58
2022-08-27T17:48:06.117Z,4.05
2022-08-27T17:51:11.664Z,4.12
2022-08-27T17:54:18.579Z,4.08
2022-08-27T17:57:45.167Z,3.83
2022-08-27T18:00:53.537Z,3.90
2022-08-27T18:04:00.239Z,3.75
2022-08-27T18:07:05.872Z,4.22
2022-08-27T18:10:12.613Z,4.17
2022-08-27T18:13:21.838Z,3.92
2022-08-27T18:19:32.732Z,4.10
2022-08-27T18:22:40.985Z,3.95
2022-08-27T18:25:39.222Z,4.50
2022-08-27T18:28:26.646Z,4.80
2022-08-27T18:31:19.811Z,4.35
2022-08-27T18:34:18.744Z,5.08
2022-08-27T18:37:14.640Z,4.12
2022-08-27T18:40:21.666Z,5.00
2022-08-27T18:43:28.407Z,4.17
2022-08-27T18:46:33.596Z,4.22
2022-08-27T18:49:41.420Z,5.10
2022-08-27T18:52:46.953Z,4.70
2022-08-27T18:55:53.322Z,3.95
2022-08-27T18:58:59.815Z,4.50
2022-08-27T19:02:05.567Z,4.22
2022-08-27T19:05:12.339Z,4.87
2022-08-27T19:08:12.549Z,5.37
2022-08-27T19:11:19.194Z,5.05
2022-08-27T19:14:24.837Z,5.72
2022-08-27T19:17:41.949Z,5.33
2022-08-27T19:20:48.696Z,7.55
2022-08-27T19:23:56.571Z,7.47
2022-08-27T19:27:04.006Z,7.30
2022-08-27T19:30:10.575Z,7.90
2022-08-27T19:33:15.855Z,7.10
2022-08-27T19:36:21.718Z,7.35
2022-08-27T19:39:27.367Z,7.92
2022-08-27T19:42:32.812Z,8.38
2022-08-27T19:45:39.862Z,7.20
2022-08-27T19:48:44.885Z,6.12
2022-08-27T19:51:50.609Z,7.53
2022-08-27T19:55:13.112Z,7.37
2022-08-27T19:57:57.146Z,6.90
2022-08-27T20:01:03.408Z,7.97
2022-08-27T20:04:09.298Z,7.85
2022-08-27T20:07:15.152Z,7.53
2022-08-27T20:10:21.633Z,6.87
2022-08-27T20:13:31.070Z,7.05
2022-08-27T20:16:26.669Z,7.03
2022-08-27T20:19:34.102Z,6.83
2022-08-27T20:22:40.065Z,5.75
2022-08-27T20:25:49.532Z,6.40
2022-08-27T20:28:55.219Z,5.97
2022-08-27T20:32:00.913Z,6.47
2022-08-27T20:35:06.316Z,6.00
2022-08-27T20:38:13.172Z,6.20
2022-08-27T20:41:18.581Z,6.72
2022-08-27T20:44:24.514Z,6.58
2022-08-27T20:47:31.125Z,6.87
2022-08-27T20:50:36.486Z,6.20
2022-08-27T20:53:42.110Z,7.03
2022-08-27T20:56:52.826Z,6.35
2022-08-27T21:00:15.267Z,6.83
2022-08-27T21:03:21.644Z,7.08
2022-08-27T21:06:30.029Z,6.75
2022-08-27T21:09:35.353Z,6.83
2022-08-27T21:12:43.031Z,6.05
2022-08-27T21:15:49.794Z,7.37
2022-08-27T21:19:00.912Z,6.15
2022-08-27T21:22:07.611Z,6.35
2022-08-27T21:25:14.338Z,5.92
2022-08-27T21:28:21.246Z,6.90
2022-08-27T21:31:27.355Z,6.53
2022-08-27T21:34:35.520Z,6.70
2022-08-27T21:37:40.287Z,6.75
2022-08-27T21:40:46.318Z,6.90
2022-08-27T21:43:45.918Z,7.15
2022-08-27T21:46:51.905Z,7.70
2022-08-27T21:49:57.996Z,6.62
2022-08-27T21:53:03.215Z,6.55
2022-08-27T21:56:09.223Z,6.78
2022-08-27T21:59:16.554Z,6.55
2022-08-27T22:02:39.243Z,7.05
2022-08-27T22:05:31.597Z,7.08
2022-08-27T22:08:36.613Z,7.22
2022-08-27T22:11:42.669Z,6.87
2022-08-27T22:14:50.202Z,6.60
2022-08-27T22:17:56.355Z,7.00
2022-08-27T22:21:02.925Z,7.83
2022-08-27T22:24:09.407Z,7.83
2022-08-27T22:27:14.865Z,7.15
2022-08-27T22:30:20.512Z,7.55
2022-08-27T22:33:26.176Z,7.00
2022-08-27T22:36:30.924Z,8.28
2022-08-27T22:39:36.004Z,7.83
2022-08-27T22:42:41.437Z,7.42
2022-08-27T22:45:47.993Z,7.42
2022-08-27T22:48:54.426Z,7.17
2022-08-27T22:52:01.108Z,7.37
2022-08-27T22:55:07.257Z,7.22
2022-08-27T22:58:05.748Z,7.80
2022-08-27T23:01:12.117Z,6.87
2022-08-27T23:04:18.810Z,7.17
2022-08-27T23:07:24.028Z,6.78
2022-08-27T23:10:32.047Z,7.83
2022-08-27T23:13:38.778Z,7.05
2022-08-27T23:16:44.398Z,6.90
2022-08-27T23:19:50.947Z,6.58
2022-08-27T23:22:51.975Z,7.78
2022-08-27T23:26:03.168Z,7.65
2022-08-27T23:29:09.193Z,7.97
2022-08-27T23:32:13.976Z,6.72
2022-08-27T23:35:21.837Z,7.03
2022-08-27T23:38:29.343Z,7.60
2022-08-27T23:41:35.538Z,8.28
2022-08-27T23:44:42.463Z,6.60
2022-08-27T23:47:48.114Z,6.33
2022-08-27T23:50:54.015Z,7.42
2022-08-27T23:54:00.810Z,7.25
2022-08-27T23:57:06.397Z,6.90
